createdAt,value
2018-09-12T00:00:37.653Z,19.40
2018-09-12T00:03:06.337Z,19.20
2018-09-12T00:05:34.723Z,19.30
2018-09-12T00:08:03.193Z,19.30
2018-09-12T00:10:31.545Z,19.20
2018-09-12T00:12:59.929Z,19.30
2018-09-12T00:15:28.302Z,19.20
2018-09-12T00:17:56.636Z,19.10
2018-09-12T00:20:25.015Z,19.10
2018-09-12T00:22:53.400Z,19.10
2018-09-12T00:25:21.752Z,19.10
2018-09-12T00:27:50.128Z,19.20
2018-09-12T00:30:18.481Z,19.10
2018-09-12T00:32:46.889Z,19.00
2018-09-12T00:35:15.237Z,19.10
2018-09-12T00:37:43.576Z,19.10
2018-09-12T00:40:11.981Z,19.10
2018-09-12T00:42:40.356Z,19.20
2018-09-12T00:45:08.764Z,19.30
2018-09-12T00:47:38.026Z,19.20
2018-09-12T00:50:06.405Z,19.20
2018-09-12T00:52:34.723Z,19.20
2018-09-12T00:55:03.075Z,19.20
2018-09-12T00:57:31.409Z,19.10
2018-09-12T01:00:00.133Z,19.20
2018-09-12T01:02:28.479Z,19.30
2018-09-12T01:04:56.868Z,19.30
2018-09-12T01:07:25.223Z,19.40
2018-09-12T01:09:53.594Z,19.40
2018-09-12T01:12:21.909Z,19.20
2018-09-12T01:14:50.302Z,19.30
2018-09-12T01:17:18.673Z,19.30
2018-09-12T01:19:47.030Z,19.30
2018-09-12T01:22:15.728Z,19.20
2018-09-12T01:24:44.218Z,19.10
2018-09-12T01:27:12.534Z,18.90
2018-09-12T01:29:40.868Z,18.90
2018-09-12T01:32:09.261Z,18.80
2018-09-12T01:34:37.629Z,18.90
2018-09-12T01:37:05.978Z,18.90
2018-09-12T01:39:34.320Z,18.80
2018-09-12T01:42:02.702Z,18.70
2018-09-12T01:44:31.038Z,18.80
2018-09-12T01:46:59.367Z,18.70
2018-09-12T01:49:27.742Z,18.80
2018-09-12T01:51:56.129Z,18.80
2018-09-12T01:54:24.791Z,18.60
2018-09-12T01:56:53.137Z,18.70
2018-09-12T01:59:21.538Z,18.90
2018-09-12T02:01:49.956Z,19.00
2018-09-12T02:04:18.394Z,18.90
2018-09-12T02:06:46.732Z,18.60
2018-09-12T02:09:15.707Z,18.80
2018-09-12T02:11:44.064Z,18.80
2018-09-12T02:14:12.465Z,18.90
2018-09-12T02:16:40.872Z,18.90
2018-09-12T02:19:09.218Z,18.90
2018-09-12T02:21:37.568Z,18.80
2018-09-12T02:24:05.987Z,18.80
2018-09-12T02:26:34.362Z,18.80
2018-09-12T02:29:02.757Z,18.70
2018-09-12T02:31:31.467Z,18.70
2018-09-12T02:34:00.051Z,18.70
2018-09-12T02:36:29.477Z,18.70
2018-09-12T02:38:59.472Z,18.80
2018-09-12T02:41:27.977Z,18.80
2018-09-12T02:43:56.350Z,18.80
2018-09-12T02:46:24.810Z,18.80
2018-09-12T02:48:53.634Z,18.80
2018-09-12T02:51:22.042Z,18.70
2018-09-12T02:53:50.390Z,18.80
2018-09-12T02:56:19.202Z,18.80
2018-09-12T02:58:48.405Z,18.90
2018-09-12T03:01:16.904Z,18.90
2018-09-12T03:03:45.448Z,19.00
2018-09-12T03:06:14.442Z,18.90
2018-09-12T03:08:43.370Z,18.90
2018-09-12T03:11:12.062Z,18.70
2018-09-12T03:13:40.664Z,18.70
2018-09-12T03:16:09.211Z,18.70
2018-09-12T03:18:37.747Z,18.70
2018-09-12T03:21:06.889Z,18.60
2018-09-12T03:23:35.357Z,18.70
2018-09-12T03:26:03.992Z,18.70
2018-09-12T03:28:32.447Z,18.60
2018-09-12T03:31:00.944Z,18.70
2018-09-12T03:33:29.778Z,18.60
2018-09-12T03:35:58.745Z,18.70
2018-09-12T03:38:27.671Z,18.60
2018-09-12T03:40:56.609Z,18.60
2018-09-12T03:43:26.084Z,18.60
2018-09-12T03:45:54.933Z,18.50
2018-09-12T03:48:23.477Z,18.60
2018-09-12T03:52:21.040Z,18.50
2018-09-12T03:54:49.481Z,18.50
2018-09-12T03:57:17.916Z,18.50
2018-09-12T03:59:46.347Z,18.50
2018-09-12T04:02:14.695Z,18.50
2018-09-12T04:04:43.044Z,18.60
2018-09-12T04:07:11.361Z,18.50
2018-09-12T04:09:39.720Z,18.50
2018-09-12T04:12:08.491Z,18.50
2018-09-12T04:14:36.853Z,18.40
2018-09-12T04:17:05.526Z,18.40
2018-09-12T04:19:33.849Z,18.40
2018-09-12T04:22:02.254Z,18.40
2018-09-12T04:24:30.611Z,18.40
2018-09-12T04:26:59.004Z,18.40
2018-09-12T04:29:27.371Z,18.40
2018-09-12T04:38:42.689Z,18.40
2018-09-12T04:41:11.064Z,18.40
2018-09-12T04:43:39.432Z,18.40
2018-09-12T04:46:08.093Z,18.40
2018-09-12T04:48:36.523Z,18.50
2018-09-12T04:51:04.854Z,18.40
2018-09-12T04:53:33.200Z,18.50
2018-09-12T04:56:01.562Z,18.40
2018-09-12T04:58:29.936Z,18.50
2018-09-12T05:00:58.389Z,18.50
2018-09-12T05:03:26.767Z,18.70
2018-09-12T05:05:55.093Z,18.60
2018-09-12T05:08:23.444Z,18.70
2018-09-12T05:10:51.796Z,18.50
2018-09-12T05:13:20.139Z,18.60
2018-09-12T05:15:48.510Z,18.50
2018-09-12T05:18:16.928Z,18.50
2018-09-12T05:20:45.266Z,18.50
2018-09-12T05:23:13.617Z,18.50
2018-09-12T05:25:42.001Z,18.30
2018-09-12T05:28:10.350Z,18.40
2018-09-12T05:30:38.691Z,18.30
2018-09-12T05:33:07.059Z,18.40
2018-09-12T05:35:35.474Z,18.50
2018-09-12T05:38:03.843Z,18.30
2018-09-12T05:40:32.214Z,18.40
2018-09-12T05:43:00.556Z,18.30
2018-09-12T05:45:28.886Z,18.30
2018-09-12T05:47:57.201Z,18.40
2018-09-12T05:50:25.546Z,18.40
2018-09-12T05:52:53.878Z,18.50
2018-09-12T05:55:22.246Z,18.30
2018-09-12T05:57:50.672Z,18.40
2018-09-12T06:00:21.742Z,18.40
2018-09-12T06:02:51.504Z,18.40
2018-09-12T06:05:20.192Z,18.50
2018-09-12T06:07:48.837Z,18.40
2018-09-12T06:10:17.178Z,18.30
2018-09-12T06:12:46.647Z,18.30
2018-09-12T06:15:15.062Z,18.40
2018-09-12T06:17:43.478Z,18.20
2018-09-12T06:20:12.228Z,18.40
2018-09-12T06:22:40.961Z,18.40
2018-09-12T06:25:09.480Z,18.40
2018-09-12T06:27:39.407Z,18.50
2018-09-12T06:30:09.527Z,18.40
2018-09-12T06:32:37.929Z,18.30
2018-09-12T06:35:06.479Z,18.40
2018-09-12T06:37:34.870Z,18.40
2018-09-12T06:40:03.298Z,18.40
2018-09-12T06:42:31.813Z,18.40
2018-09-12T06:45:00.468Z,18.50
2018-09-12T06:47:28.823Z,18.60
2018-09-12T06:49:57.175Z,18.50
2018-09-12T06:52:25.564Z,18.30
2018-09-12T06:54:54.218Z,18.40
2018-09-12T06:57:22.875Z,18.40
2018-09-12T06:59:51.599Z,18.50
2018-09-12T07:02:19.999Z,18.40
2018-09-12T07:04:48.360Z,18.40
2018-09-12T07:07:16.728Z,18.40
2018-09-12T07:09:45.097Z,18.50
2018-09-12T07:12:13.679Z,18.50
2018-09-12T07:14:42.156Z,18.50
2018-09-12T07:17:10.894Z,18.50
2018-09-12T07:19:39.419Z,18.50
2018-09-12T07:22:07.895Z,18.50
2018-09-12T07:24:36.415Z,18.40
2018-09-12T07:27:04.689Z,18.50
2018-09-12T07:29:33.113Z,18.50
2018-09-12T07:32:01.624Z,18.40
2018-09-12T07:34:30.102Z,18.50
2018-09-12T07:36:58.669Z,18.40
2018-09-12T07:39:27.191Z,18.50
2018-09-12T07:41:55.639Z,18.50
2018-09-12T07:44:24.042Z,18.60
2018-09-12T07:46:52.483Z,18.50
2018-09-12T07:49:20.913Z,18.40
2018-09-12T07:51:49.363Z,18.40
2018-09-12T07:54:17.841Z,18.40
2018-09-12T07:56:46.352Z,18.60
2018-09-12T07:59:14.752Z,18.60
2018-09-12T08:01:43.174Z,18.60
2018-09-12T08:04:11.568Z,18.70
2018-09-12T08:06:39.911Z,18.60
2018-09-12T08:09:10.826Z,18.60
2018-09-12T08:11:39.212Z,18.60
2018-09-12T08:14:07.962Z,18.70
2018-09-12T08:16:36.336Z,18.80
2018-09-12T08:19:04.976Z,18.70
2018-09-12T08:21:33.396Z,18.70
2018-09-12T08:24:02.103Z,18.80
2018-09-12T08:26:30.864Z,18.80
2018-09-12T08:28:59.286Z,18.80
2018-09-12T08:31:28.024Z,18.50
2018-09-12T08:33:56.780Z,18.30
2018-09-12T08:36:25.335Z,18.50
2018-09-12T08:38:53.726Z,18.00
2018-09-12T08:41:22.140Z,17.70
2018-09-12T08:43:50.938Z,17.60
2018-09-12T08:46:19.316Z,17.60
2018-09-12T08:48:48.297Z,17.60
2018-09-12T08:51:16.729Z,17.40
2018-09-12T08:53:45.107Z,17.20
2018-09-12T08:56:13.599Z,17.10
2018-09-12T08:58:42.917Z,16.90
2018-09-12T09:01:11.287Z,16.80
2018-09-12T09:03:40.212Z,16.70
2018-09-12T09:06:09.532Z,16.60
2018-09-12T09:08:38.019Z,16.40
2018-09-12T09:11:06.445Z,16.40
2018-09-12T09:13:34.778Z,16.40
2018-09-12T09:16:03.528Z,16.20
2018-09-12T09:18:31.932Z,16.20
2018-09-12T09:21:00.306Z,16.40
2018-09-12T09:23:28.721Z,16.40
2018-09-12T09:25:57.114Z,16.30
2018-09-12T09:28:25.432Z,16.50
2018-09-12T09:30:54.187Z,16.30
2018-09-12T09:33:22.627Z,16.10
2018-09-12T09:35:51.173Z,15.90
2018-09-12T09:38:19.587Z,16.00
2018-09-12T09:40:47.992Z,16.10
2018-09-12T09:43:16.662Z,16.10
2018-09-12T09:45:45.058Z,16.00
2018-09-12T09:48:13.667Z,16.20
2018-09-12T09:50:41.989Z,16.10
2018-09-12T09:53:10.369Z,16.10
2018-09-12T09:55:38.793Z,16.10
2018-09-12T09:58:07.193Z,16.10
2018-09-12T10:00:40.909Z,16.00
2018-09-12T10:03:14.789Z,16.10
2018-09-12T10:05:48.640Z,16.20
2018-09-12T10:08:22.462Z,16.30
2018-09-12T10:10:51.804Z,15.90
2018-09-12T10:16:13.088Z,16.20
2018-09-12T10:18:42.732Z,16.40
2018-09-12T10:21:11.369Z,16.40
2018-09-12T10:23:39.721Z,16.40
2018-09-12T10:26:08.155Z,16.40
2018-09-12T10:28:36.510Z,16.50
2018-09-12T10:31:04.973Z,16.50
2018-09-12T10:33:33.392Z,16.40
2018-09-12T10:36:01.801Z,16.30
2018-09-12T10:38:30.212Z,16.50
2018-09-12T10:40:58.613Z,16.60
2018-09-12T10:43:26.984Z,16.50
2018-09-12T10:45:55.370Z,16.70
2018-09-12T10:48:23.944Z,16.50
2018-09-12T10:50:52.356Z,16.40
2018-09-12T10:53:20.805Z,16.60
2018-09-12T10:55:49.584Z,16.50
2018-09-12T10:58:17.985Z,16.30
2018-09-12T11:00:46.428Z,16.30
2018-09-12T11:03:14.821Z,16.30
2018-09-12T11:05:43.264Z,16.30
2018-09-12T11:08:11.625Z,16.40
2018-09-12T11:10:40.035Z,16.40
2018-09-12T11:13:08.462Z,16.40
2018-09-12T11:15:36.842Z,16.30
2018-09-12T11:18:05.374Z,16.30
2018-09-12T11:20:33.770Z,16.30
2018-09-12T11:23:02.140Z,16.40
2018-09-12T11:25:30.561Z,16.60
2018-09-12T11:27:59.072Z,16.70
2018-09-12T11:30:27.566Z,16.70
2018-09-12T11:32:56.033Z,16.60
2018-09-12T11:35:24.741Z,16.70
2018-09-12T11:37:53.085Z,17.00
2018-09-12T11:40:21.537Z,17.10
2018-09-12T11:42:50.041Z,17.30
2018-09-12T11:45:18.466Z,17.40
2018-09-12T11:47:47.688Z,17.30
2018-09-12T11:50:16.552Z,17.30
2018-09-12T11:52:44.949Z,17.20
2018-09-12T11:55:13.383Z,17.40
2018-09-12T11:57:41.995Z,17.30
2018-09-12T12:00:10.366Z,17.30
2018-09-12T12:02:39.114Z,17.20
2018-09-12T12:05:07.764Z,17.30
2018-09-12T12:07:36.123Z,17.30
2018-09-12T12:10:04.589Z,17.50
2018-09-12T12:12:33.113Z,17.50
2018-09-12T12:15:03.013Z,17.60
2018-09-12T12:17:31.637Z,17.30
2018-09-12T12:20:00.005Z,17.30
2018-09-12T12:22:28.381Z,17.40
2018-09-12T12:24:56.765Z,17.40
2018-09-12T12:27:25.434Z,17.20
2018-09-12T12:29:53.792Z,17.10
2018-09-12T12:32:22.130Z,17.50
2018-09-12T12:34:50.466Z,17.60
2018-09-12T12:37:18.836Z,17.10
2018-09-12T12:39:47.507Z,17.20
2018-09-12T12:42:15.915Z,17.40
2018-09-12T12:44:44.416Z,17.20
2018-09-12T12:47:12.820Z,17.40
2018-09-12T12:49:41.492Z,17.40
2018-09-12T12:52:10.232Z,17.20
2018-09-12T12:54:38.590Z,17.30
2018-09-12T12:57:07.272Z,17.10
2018-09-12T12:59:35.726Z,17.30
2018-09-12T13:02:04.104Z,17.10
2018-09-12T13:04:32.500Z,17.20
2018-09-12T13:07:00.912Z,17.40
2018-09-12T13:09:29.713Z,17.40
2018-09-12T13:11:58.098Z,17.60
2018-09-12T13:14:26.548Z,17.50
2018-09-12T13:16:54.875Z,16.60
2018-09-12T13:19:23.577Z,16.50
2018-09-12T13:21:52.376Z,16.70
2018-09-12T13:24:20.739Z,16.90
2018-09-12T13:26:49.251Z,16.80
2018-09-12T13:29:18.261Z,16.90
2018-09-12T13:31:46.695Z,16.90
2018-09-12T13:34:15.136Z,16.80
2018-09-12T13:36:44.765Z,16.90
2018-09-12T13:39:14.873Z,17.00
2018-09-12T13:41:43.321Z,16.80
2018-09-12T13:44:11.741Z,17.00
2018-09-12T13:46:40.177Z,16.50
2018-09-12T13:49:08.627Z,16.50
2018-09-12T13:51:37.671Z,16.60
2018-09-12T13:54:06.075Z,16.60
2018-09-12T13:56:34.512Z,16.60
2018-09-12T13:59:03.274Z,16.50
2018-09-12T14:01:32.001Z,16.30
2018-09-12T14:04:00.417Z,16.30
2018-09-12T14:06:28.817Z,16.10
2018-09-12T14:08:57.272Z,16.20
2018-09-12T14:11:25.824Z,16.50
2018-09-12T14:13:54.348Z,16.50
2018-09-12T14:16:23.376Z,16.70
2018-09-12T14:18:52.353Z,16.80
2018-09-12T14:21:21.118Z,16.70
2018-09-12T14:23:49.668Z,16.70
2018-09-12T14:26:18.397Z,16.70
2018-09-12T14:28:46.910Z,16.70
2018-09-12T14:31:16.337Z,16.90
2018-09-12T14:33:44.824Z,16.50
2018-09-12T14:36:13.427Z,16.50
2018-09-12T14:38:42.452Z,16.40
2018-09-12T14:41:10.865Z,16.40
2018-09-12T14:43:40.367Z,16.50
2018-09-12T14:46:09.220Z,16.70
2018-09-12T14:48:37.701Z,17.00
2018-09-12T14:51:06.729Z,17.10
2018-09-12T14:53:35.159Z,17.30
2018-09-12T14:56:03.976Z,17.40
2018-09-12T14:58:32.448Z,17.40
2018-09-12T15:01:00.927Z,17.30
2018-09-12T15:03:29.408Z,17.20
2018-09-12T15:05:59.315Z,17.10
2018-09-12T15:08:27.895Z,17.10
2018-09-12T15:10:56.344Z,17.10
2018-09-12T15:13:24.745Z,17.30
2018-09-12T15:15:53.548Z,17.30
2018-09-12T15:18:21.906Z,17.40
2018-09-12T15:20:50.374Z,17.30
2018-09-12T15:23:18.750Z,17.10
2018-09-12T15:25:47.236Z,17.10
2018-09-12T15:28:15.857Z,16.90
2018-09-12T15:30:44.347Z,17.10
2018-09-12T15:33:12.802Z,17.40
2018-09-12T15:35:41.607Z,17.30
2018-09-12T15:38:10.122Z,17.30
2018-09-12T15:40:38.954Z,17.30
2018-09-12T15:43:07.592Z,17.10
2018-09-12T15:45:36.114Z,17.20
2018-09-12T15:48:04.533Z,17.20
2018-09-12T15:50:32.949Z,17.40
2018-09-12T15:53:01.647Z,17.50
2018-09-12T15:55:30.108Z,17.30
2018-09-12T15:57:58.819Z,17.40
2018-09-12T16:00:27.077Z,17.40
2018-09-12T16:02:55.661Z,17.50
2018-09-12T16:05:24.185Z,17.40
2018-09-12T16:07:52.973Z,17.30
2018-09-12T16:10:21.542Z,17.40
2018-09-12T16:12:51.360Z,17.40
2018-09-12T16:15:20.545Z,17.40
2018-09-12T16:17:49.133Z,17.20
2018-09-12T16:20:17.514Z,17.30
2018-09-12T16:22:46.143Z,17.20
2018-09-12T16:25:14.509Z,17.10
2018-09-12T16:27:42.937Z,17.20
2018-09-12T16:30:11.360Z,17.20
2018-09-12T16:32:41.370Z,17.20
2018-09-12T16:35:10.375Z,17.20
2018-09-12T16:37:38.769Z,17.30
2018-09-12T16:40:07.385Z,17.30
2018-09-12T16:42:35.843Z,17.30
2018-09-12T16:45:04.272Z,17.30
2018-09-12T16:47:32.703Z,17.20
2018-09-12T16:50:01.116Z,17.10
2018-09-12T16:52:29.852Z,17.30
2018-09-12T16:54:58.332Z,17.20
2018-09-12T16:57:27.314Z,17.10
2018-09-12T16:59:55.927Z,17.00
2018-09-12T17:02:24.709Z,17.20
2018-09-12T17:04:53.495Z,17.00
2018-09-12T17:07:22.015Z,17.00
2018-09-12T17:09:50.926Z,17.20
2018-09-12T17:12:19.436Z,17.20
2018-09-12T17:14:47.997Z,17.20
2018-09-12T17:17:16.788Z,17.30
2018-09-12T17:19:45.310Z,17.40
2018-09-12T17:22:13.738Z,17.30
2018-09-12T17:24:42.114Z,17.20
2018-09-12T17:27:10.676Z,17.10
2018-09-12T17:29:39.140Z,17.10
2018-09-12T17:32:07.583Z,17.10
2018-09-12T17:34:36.214Z,17.00
2018-09-12T17:37:05.699Z,17.10
2018-09-12T17:39:34.136Z,16.90
2018-09-12T17:42:02.564Z,16.90
2018-09-12T17:44:30.949Z,16.90
2018-09-12T17:46:59.377Z,17.00
2018-09-12T17:49:27.765Z,17.00
2018-09-12T17:51:56.232Z,17.00
2018-09-12T17:54:24.658Z,17.10
2018-09-12T17:56:53.513Z,17.10
2018-09-12T17:59:22.036Z,17.00
2018-09-12T18:01:50.424Z,17.00
2018-09-12T18:04:20.437Z,17.10
2018-09-12T18:06:49.900Z,16.90
2018-09-12T18:09:18.317Z,16.90
2018-09-12T18:11:46.765Z,16.90
2018-09-12T18:14:15.098Z,16.60
2018-09-12T18:16:43.537Z,16.50
2018-09-12T18:19:12.428Z,16.70
2018-09-12T18:21:41.869Z,16.70
2018-09-12T18:24:10.348Z,16.70
2018-09-12T18:26:38.707Z,16.50
2018-09-12T18:29:07.216Z,16.40
2018-09-12T18:31:35.709Z,16.40
2018-09-12T18:34:04.181Z,16.40
2018-09-12T18:36:32.659Z,16.40
2018-09-12T18:39:01.151Z,16.50
2018-09-12T18:41:29.548Z,16.60
2018-09-12T18:43:57.992Z,16.40
2018-09-12T18:46:26.436Z,16.40
2018-09-12T18:48:54.963Z,16.30
2018-09-12T18:51:23.360Z,16.50
2018-09-12T18:53:51.972Z,16.50
2018-09-12T18:56:20.335Z,16.50
2018-09-12T18:58:49.470Z,16.20
2018-09-12T19:01:17.824Z,16.30
2018-09-12T19:03:46.216Z,16.30
2018-09-12T19:06:14.687Z,16.30
2018-09-12T19:08:43.160Z,16.30
2018-09-12T19:11:11.622Z,16.20
2018-09-12T19:13:40.467Z,16.20
2018-09-12T19:16:08.841Z,16.20
2018-09-12T19:18:37.869Z,16.20
2018-09-12T19:21:08.140Z,16.20
2018-09-12T19:23:36.919Z,16.40
2018-09-12T19:26:06.105Z,16.40
2018-09-12T19:28:35.658Z,16.30
2018-09-12T19:31:04.126Z,16.50
2018-09-12T19:33:32.515Z,16.40
2018-09-12T19:36:01.033Z,16.10
2018-09-12T19:38:29.362Z,15.90
2018-09-12T19:40:57.708Z,15.70
2018-09-12T19:43:26.142Z,15.70
2018-09-12T19:45:54.637Z,15.70
2018-09-12T19:48:23.120Z,15.80
2018-09-12T19:50:51.511Z,15.60
2018-09-12T19:53:19.963Z,15.50
2018-09-12T19:55:48.345Z,15.70
2018-09-12T19:58:16.785Z,15.50
2018-09-12T20:00:45.438Z,15.40
2018-09-12T20:03:14.230Z,15.40
2018-09-12T20:05:42.627Z,15.40
2018-09-12T20:08:11.143Z,15.40
2018-09-12T20:10:39.872Z,15.50
2018-09-12T20:13:08.242Z,15.50
2018-09-12T20:15:36.674Z,15.40
2018-09-12T20:18:05.127Z,15.40
2018-09-12T20:20:33.534Z,15.40
2018-09-12T20:23:01.925Z,15.20
2018-09-12T20:25:30.305Z,15.30
2018-09-12T20:27:58.673Z,15.30
2018-09-12T20:30:27.051Z,15.10
2018-09-12T20:32:55.439Z,15.20
2018-09-12T20:35:23.813Z,15.20
2018-09-12T20:37:52.188Z,15.40
2018-09-12T20:40:20.573Z,15.40
2018-09-12T20:42:48.934Z,15.40
2018-09-12T20:45:17.464Z,15.20
2018-09-12T20:47:45.781Z,15.40
2018-09-12T20:50:15.041Z,15.30
2018-09-12T20:52:44.224Z,15.20
2018-09-12T20:55:12.603Z,15.40
2018-09-12T20:57:41.789Z,15.50
2018-09-12T21:00:10.469Z,15.40
2018-09-12T21:02:39.552Z,15.30
2018-09-12T21:05:08.995Z,15.30
2018-09-12T21:07:37.764Z,15.40
2018-09-12T21:10:06.938Z,15.50
2018-09-12T21:12:35.811Z,15.50
2018-09-12T21:15:04.392Z,15.60
2018-09-12T21:17:34.729Z,15.60
2018-09-12T21:20:03.215Z,15.40
2018-09-12T21:22:31.918Z,15.50
2018-09-12T21:25:00.405Z,15.40
2018-09-12T21:27:29.202Z,15.20
2018-09-12T21:29:58.202Z,15.20
2018-09-12T21:32:26.854Z,15.30
2018-09-12T21:34:56.060Z,15.30
2018-09-12T21:37:25.282Z,15.40
2018-09-12T21:39:54.881Z,15.40
2018-09-12T21:42:23.945Z,15.50
2018-09-12T21:44:55.927Z,15.60
2018-09-12T21:47:25.465Z,15.50
2018-09-12T21:49:53.885Z,15.20
2018-09-12T21:52:22.351Z,15.20
2018-09-12T21:54:50.912Z,15.40
2018-09-12T21:57:19.430Z,15.50
2018-09-12T21:59:47.801Z,15.60
2018-09-12T22:02:16.204Z,15.50
2018-09-12T22:04:44.546Z,15.60
2018-09-12T22:10:23.008Z,15.60
2018-09-12T22:12:51.413Z,15.40
2018-09-12T22:15:19.805Z,15.40
2018-09-12T22:17:48.352Z,15.20
2018-09-12T22:20:16.714Z,15.20
2018-09-12T22:22:45.047Z,15.30
2018-09-12T22:25:13.560Z,15.30
2018-09-12T22:27:42.210Z,15.40
2018-09-12T22:30:10.988Z,15.20
2018-09-12T22:32:39.327Z,15.20
2018-09-12T22:35:07.725Z,15.10
2018-09-12T22:37:36.131Z,15.10
2018-09-12T22:40:04.514Z,15.10
2018-09-12T22:42:32.930Z,15.30
2018-09-12T22:45:01.351Z,15.40
2018-09-12T22:47:29.813Z,15.40
2018-09-12T22:49:58.213Z,15.50
2018-09-12T22:52:26.585Z,15.50
2018-09-12T22:54:54.939Z,15.30
2018-09-12T22:57:23.381Z,15.30
2018-09-12T22:59:52.442Z,15.10
2018-09-12T23:02:20.757Z,15.20
2018-09-12T23:04:49.089Z,15.20
2018-09-12T23:07:17.454Z,15.30
2018-09-12T23:09:45.811Z,15.10
2018-09-12T23:12:14.149Z,15.20
2018-09-12T23:14:42.493Z,15.30
2018-09-12T23:17:10.931Z,15.10
2018-09-12T23:19:39.664Z,15.00
2018-09-12T23:22:08.054Z,15.10
2018-09-12T23:24:36.392Z,15.10
2018-09-12T23:27:04.913Z,15.10
2018-09-12T23:29:33.296Z,15.30
2018-09-12T23:32:02.245Z,15.40
2018-09-12T23:34:30.926Z,15.20
2018-09-12T23:36:59.501Z,15.00
2018-09-12T23:39:28.286Z,15.00
2018-09-12T23:41:56.646Z,15.10
2018-09-12T23:44:25.004Z,15.20
2018-09-12T23:46:53.356Z,15.30
2018-09-12T23:49:21.727Z,15.30
2018-09-12T23:51:50.113Z,15.40
2018-09-12T23:54:18.473Z,15.30
2018-09-12T23:56:46.859Z,15.10
2018-09-12T23:59:15.186Z,15.20
